createdAt,value
2017-07-19T00:00:18.769Z,5.30
2017-07-19T00:02:45.706Z,5.47
2017-07-19T00:05:12.677Z,5.20
2017-07-19T00:07:39.621Z,5.13
2017-07-19T00:10:07.493Z,4.13
2017-07-19T00:12:34.429Z,4.90
2017-07-19T00:15:01.411Z,5.23
2017-07-19T00:17:29.149Z,5.57
2017-07-19T00:19:56.103Z,6.20
2017-07-19T00:22:23.046Z,5.00
2017-07-19T00:24:50.038Z,4.70
2017-07-19T00:27:16.986Z,5.50
2017-07-19T00:29:43.929Z,5.10
2017-07-19T00:32:10.887Z,4.90
2017-07-19T00:34:37.807Z,5.90
2017-07-19T00:37:05.525Z,5.50
2017-07-19T00:39:32.466Z,5.60
2017-07-19T00:41:59.428Z,5.03
2017-07-19T00:44:27.363Z,4.07
2017-07-19T00:46:54.307Z,5.27
2017-07-19T00:49:21.240Z,5.27
2017-07-19T00:51:48.215Z,5.90
2017-07-19T00:54:15.162Z,4.70
2017-07-19T00:56:42.102Z,5.27
2017-07-19T00:59:09.043Z,4.13
2017-07-19T01:01:35.997Z,5.70
2017-07-19T01:04:02.934Z,4.90
2017-07-19T01:06:29.878Z,5.40
2017-07-19T01:08:56.824Z,5.03
2017-07-19T01:11:24.800Z,4.87
2017-07-19T01:13:51.743Z,4.67
2017-07-19T01:16:18.700Z,5.50
2017-07-19T01:18:45.658Z,5.27
2017-07-19T01:21:12.600Z,5.60
2017-07-19T01:23:39.561Z,6.10
2017-07-19T01:26:08.297Z,4.57
2017-07-19T01:28:35.225Z,5.27
2017-07-19T01:31:02.168Z,4.63
2017-07-19T01:33:29.113Z,5.90
2017-07-19T01:35:56.050Z,4.50
2017-07-19T01:38:22.974Z,5.40
2017-07-19T01:40:50.686Z,5.80
2017-07-19T01:43:17.620Z,4.87
2017-07-19T01:45:44.589Z,5.77
2017-07-19T01:48:11.532Z,4.87
2017-07-19T01:50:38.512Z,5.70
2017-07-19T01:53:06.213Z,5.83
2017-07-19T01:55:33.188Z,5.30
2017-07-19T01:58:00.157Z,5.17
2017-07-19T02:00:27.926Z,4.87
2017-07-19T02:02:55.633Z,5.53
2017-07-19T02:05:22.595Z,4.43
2017-07-19T02:07:49.551Z,6.30
2017-07-19T02:10:16.518Z,5.90
2017-07-19T02:12:44.229Z,5.97
2017-07-19T02:15:11.189Z,4.90
2017-07-19T02:17:38.122Z,5.27
2017-07-19T02:20:05.097Z,6.20
2017-07-19T02:22:32.042Z,6.17
2017-07-19T02:24:59.055Z,6.57
2017-07-19T02:27:25.974Z,5.90
2017-07-19T02:29:52.946Z,6.13
2017-07-19T02:32:19.891Z,5.93
2017-07-19T02:34:46.836Z,5.90
2017-07-19T02:37:13.776Z,6.40
2017-07-19T02:39:40.734Z,6.83
2017-07-19T02:42:07.756Z,7.10
2017-07-19T02:44:34.694Z,6.73
2017-07-19T02:47:01.641Z,6.00
2017-07-19T02:49:28.584Z,6.10
2017-07-19T02:51:55.532Z,6.27
2017-07-19T02:54:22.488Z,5.90
2017-07-19T02:56:49.442Z,6.10
2017-07-19T02:59:16.377Z,7.40
2017-07-19T03:01:43.329Z,6.60
2017-07-19T03:04:10.288Z,6.63
2017-07-19T03:06:37.269Z,6.50
2017-07-19T03:09:05.194Z,6.70
2017-07-19T03:11:32.130Z,6.77
2017-07-19T03:13:59.078Z,6.37
2017-07-19T03:16:26.029Z,5.90
2017-07-19T03:18:52.969Z,6.77
2017-07-19T03:21:19.929Z,6.80
2017-07-19T03:23:46.863Z,6.50
2017-07-19T03:26:14.758Z,6.40
2017-07-19T03:28:41.683Z,6.60
2017-07-19T03:31:08.650Z,6.83
2017-07-19T03:33:35.600Z,6.63
2017-07-19T03:36:02.549Z,7.20
2017-07-19T03:38:29.484Z,6.53
2017-07-19T03:40:56.418Z,6.63
2017-07-19T03:43:23.354Z,6.50
2017-07-19T03:45:50.337Z,6.93
2017-07-19T03:48:18.038Z,6.73
2017-07-19T03:50:45.002Z,6.70
2017-07-19T03:53:11.929Z,6.47
2017-07-19T03:55:38.858Z,6.67
2017-07-19T03:58:05.819Z,6.53
2017-07-19T04:00:32.764Z,8.33
2017-07-19T04:03:00.751Z,6.17
2017-07-19T04:05:27.704Z,7.53
2017-07-19T04:07:54.683Z,7.53
2017-07-19T04:10:22.384Z,6.83
2017-07-19T04:12:49.358Z,7.03
2017-07-19T04:15:16.303Z,5.90
2017-07-19T04:17:43.249Z,7.57
2017-07-19T04:20:11.182Z,8.00
2017-07-19T04:22:38.136Z,6.70
2017-07-19T04:25:06.120Z,7.30
2017-07-19T04:27:33.984Z,5.90
2017-07-19T04:30:00.917Z,7.47
2017-07-19T04:32:31.568Z,7.57
2017-07-19T04:34:59.516Z,7.97
2017-07-19T04:37:27.397Z,7.13
2017-07-19T04:39:54.692Z,7.10
2017-07-19T04:42:22.391Z,7.00
2017-07-19T04:44:49.305Z,7.13
2017-07-19T04:47:17.028Z,7.53
2017-07-19T04:49:43.956Z,7.13
2017-07-19T04:52:10.883Z,7.37
2017-07-19T04:54:37.831Z,6.70
2017-07-19T04:57:04.775Z,7.23
2017-07-19T04:59:31.762Z,7.27
2017-07-19T05:01:58.721Z,6.00
2017-07-19T05:04:26.534Z,6.70
2017-07-19T05:06:53.485Z,6.60
2017-07-19T05:09:20.463Z,6.43
2017-07-19T05:11:48.380Z,6.27
2017-07-19T05:14:15.337Z,7.37
2017-07-19T05:16:42.280Z,6.13
2017-07-19T05:19:09.254Z,6.43
2017-07-19T05:21:36.214Z,7.47
2017-07-19T05:24:04.153Z,6.37
2017-07-19T05:26:31.106Z,6.20
2017-07-19T05:28:58.978Z,6.43
2017-07-19T05:31:25.926Z,5.80
2017-07-19T05:33:52.884Z,6.20
2017-07-19T05:36:19.822Z,6.17
2017-07-19T05:38:46.757Z,5.30
2017-07-19T05:41:13.720Z,6.97
2017-07-19T05:43:40.667Z,5.40
2017-07-19T05:46:08.403Z,5.37
2017-07-19T05:48:36.364Z,5.40
2017-07-19T05:51:03.336Z,7.33
2017-07-19T05:53:30.290Z,5.53
2017-07-19T05:55:57.244Z,5.90
2017-07-19T05:58:24.181Z,6.00
2017-07-19T06:00:51.955Z,5.67
2017-07-19T06:03:18.901Z,5.80
2017-07-19T06:05:46.601Z,5.03
2017-07-19T06:08:13.561Z,6.53
2017-07-19T06:10:40.504Z,5.70
2017-07-19T06:13:07.456Z,4.63
2017-07-19T06:15:34.480Z,4.67
2017-07-19T06:18:01.446Z,5.37
2017-07-19T06:20:28.389Z,4.77
2017-07-19T06:22:55.365Z,5.20
2017-07-19T06:25:22.306Z,5.13
2017-07-19T06:27:49.280Z,4.70
2017-07-19T06:30:17.160Z,5.00
2017-07-19T06:32:47.158Z,5.17
2017-07-19T06:35:16.095Z,4.70
2017-07-19T06:37:43.044Z,5.20
2017-07-19T06:40:10.070Z,5.40
2017-07-19T06:42:37.046Z,5.40
2017-07-19T06:45:04.834Z,4.40
2017-07-19T06:47:32.584Z,5.57
2017-07-19T06:50:00.503Z,5.73
2017-07-19T06:52:27.444Z,4.20
2017-07-19T06:54:55.313Z,6.40
2017-07-19T06:57:22.293Z,3.50
2017-07-19T06:59:49.271Z,4.90
2017-07-19T07:02:16.970Z,4.40
2017-07-19T07:04:43.944Z,4.57
2017-07-19T07:07:11.882Z,4.70
2017-07-19T07:09:39.749Z,4.57
2017-07-19T07:12:06.724Z,4.10
2017-07-19T07:14:33.686Z,3.50
2017-07-19T07:17:00.619Z,4.60
2017-07-19T07:19:27.564Z,4.70
2017-07-19T07:21:54.518Z,4.10
2017-07-19T07:24:21.501Z,5.60
2017-07-19T07:26:48.423Z,3.93
2017-07-19T07:29:17.067Z,4.53
2017-07-19T07:31:45.937Z,4.40
2017-07-19T07:34:13.817Z,4.63
2017-07-19T07:36:40.757Z,4.30
2017-07-19T07:39:07.768Z,5.10
2017-07-19T07:41:35.468Z,3.50
2017-07-19T07:44:02.429Z,5.10
2017-07-19T07:46:29.370Z,4.73
2017-07-19T07:48:56.342Z,5.30
2017-07-19T07:51:23.284Z,4.60
2017-07-19T07:53:50.498Z,4.80
2017-07-19T07:56:20.781Z,3.97
2017-07-19T07:58:48.480Z,4.53
2017-07-19T08:01:15.461Z,4.53
2017-07-19T08:03:42.385Z,4.30
2017-07-19T08:06:10.349Z,3.77
2017-07-19T08:08:37.291Z,5.03
2017-07-19T08:11:04.241Z,4.63
2017-07-19T08:13:31.177Z,6.83
2017-07-19T08:15:58.135Z,4.30
2017-07-19T08:18:25.079Z,4.97
2017-07-19T08:20:52.029Z,3.93
2017-07-19T08:23:18.964Z,5.43
2017-07-19T08:25:45.920Z,4.33
2017-07-19T08:28:12.881Z,4.50
2017-07-19T08:30:39.835Z,4.17
2017-07-19T08:33:07.544Z,4.60
2017-07-19T08:35:34.523Z,4.27
2017-07-19T08:38:01.453Z,4.00
2017-07-19T08:40:28.405Z,4.20
2017-07-19T08:42:55.336Z,4.67
2017-07-19T08:45:22.291Z,4.30
2017-07-19T08:47:50.245Z,4.83
2017-07-19T08:50:18.210Z,4.80
2017-07-19T08:52:45.155Z,3.87
2017-07-19T08:55:12.091Z,4.60
2017-07-19T08:57:39.020Z,4.60
2017-07-19T09:00:05.973Z,4.07
2017-07-19T09:02:32.920Z,4.80
2017-07-19T09:04:59.893Z,4.40
2017-07-19T09:07:26.825Z,4.27
2017-07-19T09:09:53.789Z,4.10
2017-07-19T09:12:20.718Z,4.50
2017-07-19T09:14:47.700Z,5.03
2017-07-19T09:17:14.639Z,5.03
2017-07-19T09:19:41.583Z,4.80
2017-07-19T09:22:10.453Z,4.13
2017-07-19T09:24:37.435Z,4.90
2017-07-19T09:27:04.414Z,3.97
2017-07-19T09:29:31.354Z,4.00
2017-07-19T09:31:58.528Z,5.03
2017-07-19T09:34:27.420Z,4.73
2017-07-19T09:36:56.161Z,4.03
2017-07-19T09:39:23.105Z,4.73
2017-07-19T09:41:50.106Z,4.50
2017-07-19T09:44:17.796Z,4.03
2017-07-19T09:46:44.758Z,5.30
2017-07-19T09:49:17.389Z,4.73
2017-07-19T09:51:49.297Z,5.27
2017-07-19T09:54:16.328Z,4.90
2017-07-19T09:56:43.292Z,4.40
2017-07-19T09:59:10.233Z,4.00
2017-07-19T10:01:37.208Z,4.30
2017-07-19T10:04:05.153Z,4.10
2017-07-19T10:06:32.279Z,4.70
2017-07-19T10:09:00.260Z,4.17
2017-07-19T10:11:27.249Z,5.50
2017-07-19T10:13:55.135Z,5.03
2017-07-19T10:16:22.072Z,4.47
2017-07-19T10:18:49.797Z,4.20
2017-07-19T10:21:16.738Z,4.50
2017-07-19T10:23:45.729Z,4.13
2017-07-19T10:26:15.926Z,4.50
2017-07-19T10:28:44.833Z,4.37
2017-07-19T10:31:11.760Z,5.93
2017-07-19T10:33:38.748Z,4.97
2017-07-19T10:36:05.709Z,4.40
2017-07-19T10:38:32.683Z,4.43
2017-07-19T10:40:59.618Z,4.30
2017-07-19T10:43:26.580Z,4.93
2017-07-19T10:45:53.523Z,5.03
2017-07-19T10:48:21.418Z,4.40
2017-07-19T10:50:48.345Z,5.53
2017-07-19T10:53:15.331Z,5.17
2017-07-19T10:55:43.269Z,4.90
2017-07-19T10:58:10.208Z,4.40
2017-07-19T11:00:37.173Z,4.47
2017-07-19T11:03:04.105Z,4.50
2017-07-19T11:05:31.087Z,5.30
2017-07-19T11:07:59.822Z,4.93
2017-07-19T11:10:26.747Z,5.33
2017-07-19T11:12:53.683Z,4.30
2017-07-19T11:15:21.382Z,5.00
2017-07-19T11:17:50.277Z,4.60
2017-07-19T11:20:18.165Z,4.60
2017-07-19T11:22:45.138Z,4.77
2017-07-19T11:25:12.845Z,4.30
2017-07-19T11:27:40.813Z,4.70
2017-07-19T11:30:07.756Z,5.30
2017-07-19T11:32:35.736Z,4.37
2017-07-19T11:35:03.694Z,4.33
2017-07-19T11:37:31.965Z,4.40
2017-07-19T11:39:58.900Z,4.87
2017-07-19T11:42:25.878Z,4.10
2017-07-19T11:44:52.836Z,4.80
2017-07-19T11:47:19.813Z,4.53
2017-07-19T11:49:48.746Z,3.40
2017-07-19T11:52:15.685Z,4.40
2017-07-19T11:54:43.496Z,4.67
2017-07-19T11:57:10.428Z,5.27
2017-07-19T11:59:37.376Z,4.37
2017-07-19T12:02:04.329Z,4.73
2017-07-19T12:04:32.052Z,4.20
2017-07-19T12:06:58.985Z,4.40
2017-07-19T12:09:26.900Z,5.30
2017-07-19T12:11:54.603Z,4.30
2017-07-19T12:14:21.566Z,4.80
2017-07-19T12:16:48.535Z,5.47
2017-07-19T12:19:17.684Z,5.00
2017-07-19T12:21:44.658Z,4.80
2017-07-19T12:24:11.597Z,4.47
2017-07-19T12:26:38.582Z,4.53
2017-07-19T12:29:05.677Z,5.20
2017-07-19T12:31:33.570Z,3.93
2017-07-19T12:34:00.524Z,3.63
2017-07-19T12:36:27.486Z,4.53
2017-07-19T12:38:56.281Z,5.40
2017-07-19T12:41:23.260Z,4.10
2017-07-19T12:43:54.530Z,4.33
2017-07-19T12:46:21.509Z,4.60
2017-07-19T12:48:49.222Z,4.70
2017-07-19T12:51:16.203Z,4.40
2017-07-19T12:53:43.281Z,4.53
2017-07-19T12:56:11.056Z,4.53
2017-07-19T12:58:37.993Z,4.73
2017-07-19T13:01:06.826Z,4.80
2017-07-19T13:03:34.798Z,5.23
2017-07-19T13:06:01.729Z,4.97
2017-07-19T13:08:29.613Z,4.57
2017-07-19T13:10:56.533Z,4.67
2017-07-19T13:13:27.997Z,5.50
2017-07-19T13:15:59.421Z,4.50
2017-07-19T13:18:26.352Z,5.47
2017-07-19T13:20:54.272Z,5.93
2017-07-19T13:23:21.218Z,4.60
2017-07-19T13:25:48.561Z,5.10
2017-07-19T13:28:15.495Z,4.90
2017-07-19T13:30:43.352Z,4.80
2017-07-19T13:33:10.348Z,4.30
2017-07-19T13:35:37.293Z,5.30
2017-07-19T13:38:04.227Z,5.13
2017-07-19T13:40:36.074Z,5.50
2017-07-19T13:43:03.013Z,5.63
2017-07-19T13:45:30.024Z,4.40
2017-07-19T13:47:57.007Z,4.40
2017-07-19T13:50:24.980Z,5.07
2017-07-19T13:52:51.902Z,5.20
2017-07-19T13:55:18.857Z,4.70
2017-07-19T13:57:45.800Z,4.93
2017-07-19T14:00:12.845Z,5.20
2017-07-19T14:02:39.778Z,4.73
2017-07-19T14:05:06.717Z,4.60
2017-07-19T14:07:34.610Z,4.73
2017-07-19T14:10:03.453Z,4.73
2017-07-19T14:12:34.850Z,4.47
2017-07-19T14:15:02.902Z,4.57
2017-07-19T14:17:29.844Z,4.80
2017-07-19T14:19:56.771Z,4.77
2017-07-19T14:22:23.762Z,4.97
2017-07-19T14:24:51.735Z,4.70
2017-07-19T14:27:18.718Z,5.47
2017-07-19T14:29:46.463Z,4.63
2017-07-19T14:32:15.418Z,4.83
2017-07-19T14:34:43.276Z,4.70
2017-07-19T14:37:10.232Z,4.50
2017-07-19T14:39:37.523Z,5.20
2017-07-19T14:42:07.518Z,4.80
2017-07-19T14:44:35.483Z,4.27
2017-07-19T14:47:03.211Z,5.03
2017-07-19T14:49:30.149Z,4.90
2017-07-19T14:51:57.071Z,3.70
2017-07-19T14:54:24.019Z,5.30
2017-07-19T14:56:51.885Z,4.50
2017-07-19T14:59:18.836Z,4.57
2017-07-19T15:01:45.845Z,4.63
2017-07-19T15:04:12.835Z,4.90
2017-07-19T15:06:39.779Z,4.40
2017-07-19T15:09:06.734Z,4.40
2017-07-19T15:11:33.659Z,3.40
2017-07-19T15:14:00.604Z,4.30
2017-07-19T15:16:27.535Z,4.00
2017-07-19T15:18:54.530Z,4.77
2017-07-19T15:21:21.464Z,4.47
2017-07-19T15:23:49.414Z,6.17
2017-07-19T15:26:16.372Z,4.33
2017-07-19T15:28:43.331Z,4.90
2017-07-19T15:31:11.025Z,5.17
2017-07-19T15:33:37.954Z,5.40
2017-07-19T15:36:04.906Z,5.00
2017-07-19T15:38:31.868Z,3.90
2017-07-19T15:41:00.797Z,5.30
2017-07-19T15:43:28.643Z,4.80
2017-07-19T15:45:55.601Z,4.80
2017-07-19T15:48:25.820Z,5.77
2017-07-19T15:50:52.769Z,4.80
2017-07-19T15:53:19.701Z,4.70
2017-07-19T15:55:50.198Z,4.57
2017-07-19T15:58:17.135Z,4.10
2017-07-19T16:00:44.088Z,4.20
2017-07-19T16:03:11.801Z,3.73
2017-07-19T16:05:38.757Z,5.10
2017-07-19T16:08:05.696Z,4.77
2017-07-19T16:10:32.644Z,4.57
2017-07-19T16:12:59.580Z,5.43
2017-07-19T16:15:26.531Z,4.70
2017-07-19T16:17:53.455Z,4.47
2017-07-19T16:20:20.401Z,5.10
2017-07-19T16:22:47.324Z,4.90
2017-07-19T16:25:15.053Z,4.82
2017-07-19T16:27:41.980Z,4.63
2017-07-19T16:30:08.905Z,4.80
2017-07-19T16:32:35.838Z,5.23
2017-07-19T16:35:02.804Z,5.03
2017-07-19T16:37:29.746Z,5.23
2017-07-19T16:39:56.719Z,5.00
2017-07-19T16:42:23.671Z,5.67
2017-07-19T16:44:51.568Z,5.33
2017-07-19T16:47:19.416Z,4.30
2017-07-19T16:49:47.304Z,4.67
2017-07-19T16:52:14.238Z,5.40
2017-07-19T16:54:41.199Z,5.70
2017-07-19T16:57:08.321Z,5.23
2017-07-19T16:59:35.255Z,5.30
2017-07-19T17:02:02.192Z,5.67
2017-07-19T17:04:29.121Z,5.30
2017-07-19T17:06:56.831Z,6.20
2017-07-19T17:09:24.808Z,6.13
2017-07-19T17:11:51.737Z,5.37
2017-07-19T17:14:18.699Z,5.70
2017-07-19T17:16:46.401Z,6.00
2017-07-19T17:19:13.362Z,5.50
2017-07-19T17:21:41.220Z,5.57
2017-07-19T17:24:08.172Z,5.70
2017-07-19T17:26:35.094Z,5.20
2017-07-19T17:29:02.076Z,6.30
2017-07-19T17:31:29.011Z,6.00
2017-07-19T17:33:56.997Z,6.43
2017-07-19T17:36:23.935Z,6.77
2017-07-19T17:38:51.877Z,6.80
2017-07-19T17:41:18.855Z,7.77
2017-07-19T17:43:45.784Z,5.97
2017-07-19T17:46:12.732Z,6.30
2017-07-19T17:48:39.656Z,5.87
2017-07-19T17:51:06.715Z,6.10
2017-07-19T17:53:35.612Z,5.53
2017-07-19T17:56:02.593Z,5.97
2017-07-19T17:58:33.942Z,6.10
2017-07-19T18:01:00.908Z,7.10
2017-07-19T18:03:27.871Z,5.20
2017-07-19T18:05:55.781Z,5.83
2017-07-19T18:08:22.722Z,6.50
2017-07-19T18:10:51.595Z,6.23
2017-07-19T18:13:18.788Z,5.57
2017-07-19T18:15:46.658Z,6.87
2017-07-19T18:18:14.356Z,7.23
2017-07-19T18:20:41.336Z,6.17
2017-07-19T18:23:08.264Z,6.67
2017-07-19T18:25:35.212Z,6.30
2017-07-19T18:28:03.076Z,6.23
2017-07-19T18:30:30.035Z,6.33
2017-07-19T18:32:56.964Z,6.20
2017-07-19T18:35:23.972Z,5.87
2017-07-19T18:37:51.678Z,6.47
2017-07-19T18:40:18.656Z,6.07
2017-07-19T18:42:46.430Z,7.43
2017-07-19T18:45:15.188Z,6.20
2017-07-19T18:47:42.187Z,6.40
2017-07-19T18:50:09.118Z,6.37
2017-07-19T18:52:36.827Z,6.20
2017-07-19T18:55:03.752Z,6.10
2017-07-19T18:57:34.700Z,6.10
2017-07-19T19:00:02.662Z,5.90
2017-07-19T19:02:29.612Z,6.27
2017-07-19T19:04:58.503Z,5.70
2017-07-19T19:07:25.448Z,6.30
2017-07-19T19:09:52.371Z,6.40
2017-07-19T19:12:23.443Z,6.07
2017-07-19T19:14:51.388Z,5.50
2017-07-19T19:17:18.324Z,6.07
2017-07-19T19:19:51.392Z,6.40
2017-07-19T19:22:22.171Z,6.27
2017-07-19T19:24:49.126Z,5.60
2017-07-19T19:27:17.061Z,6.47
2017-07-19T19:29:44.007Z,5.30
2017-07-19T19:32:12.218Z,6.63
2017-07-19T19:34:39.201Z,7.27
2017-07-19T19:37:07.087Z,6.60
2017-07-19T19:39:34.047Z,5.23
2017-07-19T19:42:01.015Z,6.33
2017-07-19T19:44:27.968Z,6.50
2017-07-19T19:46:56.860Z,6.63
2017-07-19T19:49:23.902Z,6.33
2017-07-19T19:51:50.837Z,6.67
2017-07-19T19:54:18.813Z,5.63
2017-07-19T19:56:45.772Z,6.57
2017-07-19T19:59:12.698Z,6.10
2017-07-19T20:01:39.625Z,7.00
2017-07-19T20:04:06.568Z,7.80
2017-07-19T20:06:33.509Z,5.90
2017-07-19T20:09:00.455Z,5.87
2017-07-19T20:11:27.381Z,6.07
2017-07-19T20:13:54.337Z,8.57
2017-07-19T20:16:21.328Z,6.03
2017-07-19T20:18:48.284Z,6.30
2017-07-19T20:21:17.206Z,5.53
2017-07-19T20:23:45.132Z,5.53
2017-07-19T20:26:13.068Z,6.33
2017-07-19T20:28:40.032Z,6.70
2017-07-19T20:31:06.965Z,5.27
2017-07-19T20:33:33.898Z,6.07
2017-07-19T20:36:01.618Z,5.90
2017-07-19T20:38:28.581Z,6.10
2017-07-19T20:40:55.524Z,7.00
2017-07-19T20:43:26.325Z,6.80
2017-07-19T20:45:53.271Z,6.20
2017-07-19T20:48:20.204Z,7.90
2017-07-19T20:50:47.152Z,7.57
2017-07-19T20:53:14.857Z,7.23
2017-07-19T20:55:41.812Z,7.27
2017-07-19T20:58:08.737Z,7.73
2017-07-19T21:00:35.712Z,9.20
2017-07-19T21:03:02.648Z,8.00
2017-07-19T21:05:30.500Z,8.30
2017-07-19T21:07:57.448Z,8.67
2017-07-19T21:10:24.396Z,9.53
2017-07-19T21:12:51.369Z,11.07
2017-07-19T21:15:18.345Z,11.00
2017-07-19T21:17:45.281Z,11.23
2017-07-19T21:20:13.203Z,13.20
2017-07-19T21:22:41.148Z,13.83
2017-07-19T21:25:08.206Z,13.60
2017-07-19T21:27:36.212Z,18.13
2017-07-19T21:30:03.203Z,40.03
2017-07-19T21:32:30.210Z,37.23
2017-07-19T21:34:57.925Z,37.37
2017-07-19T21:37:24.895Z,30.30
2017-07-19T21:39:51.837Z,23.97
2017-07-19T21:42:18.813Z,19.90
2017-07-19T21:44:46.521Z,16.50
2017-07-19T21:47:13.485Z,12.80
2017-07-19T21:49:40.426Z,12.57
2017-07-19T21:52:08.799Z,11.23
2017-07-19T21:54:35.732Z,9.27
2017-07-19T21:57:02.664Z,9.70
2017-07-19T21:59:29.635Z,9.57
2017-07-19T22:01:56.586Z,9.20
2017-07-19T22:04:25.473Z,8.30
2017-07-19T22:06:52.429Z,9.53
2017-07-19T22:09:19.410Z,7.57
2017-07-19T22:11:48.177Z,9.37
2017-07-19T22:14:15.133Z,7.20
2017-07-19T22:16:42.117Z,8.27
2017-07-19T22:19:09.176Z,7.63
2017-07-19T22:21:36.100Z,8.13
2017-07-19T22:24:03.060Z,8.27
2017-07-19T22:26:29.984Z,8.67
2017-07-19T22:28:56.950Z,7.90
2017-07-19T22:31:24.658Z,7.63
2017-07-19T22:33:51.617Z,7.27
2017-07-19T22:36:18.553Z,7.67
2017-07-19T22:38:45.506Z,6.70
2017-07-19T22:41:12.445Z,7.33
2017-07-19T22:43:39.375Z,7.90
2017-07-19T22:46:06.321Z,8.20
2017-07-19T22:48:33.253Z,8.30
2017-07-19T22:51:00.215Z,7.60
2017-07-19T22:53:27.259Z,7.13
2017-07-19T22:55:54.262Z,8.63
2017-07-19T22:58:21.970Z,8.60
2017-07-19T23:00:48.948Z,6.83
2017-07-19T23:03:16.824Z,8.43
2017-07-19T23:05:44.557Z,7.53
2017-07-19T23:08:11.516Z,6.80
2017-07-19T23:10:39.332Z,7.30
2017-07-19T23:13:06.272Z,6.63
2017-07-19T23:15:33.940Z,6.83
2017-07-19T23:18:00.883Z,7.00
2017-07-19T23:20:27.824Z,7.00
2017-07-19T23:22:54.759Z,6.00
2017-07-19T23:25:22.451Z,6.47
2017-07-19T23:27:49.405Z,6.00
2017-07-19T23:30:16.338Z,5.60
2017-07-19T23:32:43.301Z,4.70
2017-07-19T23:35:10.240Z,5.33
2017-07-19T23:37:37.212Z,5.30
2017-07-19T23:40:05.161Z,6.03
2017-07-19T23:42:32.118Z,5.37
2017-07-19T23:44:59.053Z,6.10
2017-07-19T23:47:26.027Z,6.30
2017-07-19T23:49:52.957Z,5.50
2017-07-19T23:52:19.913Z,5.80
2017-07-19T23:54:46.850Z,5.17
2017-07-19T23:57:13.810Z,5.50
2017-07-19T23:59:41.513Z,5.47
